Time;durP1;ratioP1;P1;durP2;ratioP2;P2;SDS_P1;SDS_P2;PMS_P1;PMS_P2;Temp;Humidity;BMP_temperature;BMP_pressure;BME280_temperature;BME280_humidity;BME280_pressure;Samples;Min_cycle;Max_cycle;Signal;HPM_P1;HPM_P2
2023/05/20 00:00:28;;;;;;;19.20;13.52;;;;;;;12.65;86.44;97855.03;10279355;28;19921;-52
2023/05/20 00:05:27;;;;;;;;;;;;;;;13.57;87.12;98019.34;10280034;28;20045;-53
2023/05/20 00:10:26;;;;;;;21.23;14.93;;;;;;;13.08;87.11;97967.56;10278895;28;19960;-52
2023/05/20 00:15:25;;;;;;;;;;;;;;;13.39;87.34;98032.50;10280040;28;20121;-52
2023/05/20 00:20:24;;;;;;;19.73;14.93;;;;;;;13.28;87.64;98027.38;10279240;28;19923;-52
2023/05/20 00:25:23;;;;;;;22.35;15.20;;;;;;;13.17;88.45;98028.34;10279707;28;20447;-52
2023/05/20 00:30:21;;;;;;;;;;;;;;;12.17;90.67;97909.09;10287443;28;20056;-51
2023/05/20 00:35:20;;;;;;;24.83;16.77;;;;;;;12.82;90.40;98029.41;10287839;28;20469;-52
2023/05/20 00:40:20;;;;;;;;;;;;;;;12.72;90.28;98026.00;10287377;28;20061;-51
2023/05/20 00:45:19;;;;;;;25.88;16.83;;;;;;;12.69;90.43;98024.25;10287459;28;20000;-51
2023/05/20 00:50:18;;;;;;;;;;;;;;;12.62;90.34;98029.50;10286671;28;20088;-51
2023/05/20 00:55:17;;;;;;;24.83;15.32;;;;;;;12.53;90.53;98025.19;10286204;28;19914;-52
2023/05/20 01:00:16;;;;;;;;;;;;;;;12.41;90.76;98026.13;10286520;28;20117;-51
2023/05/20 01:05:15;;;;;;;22.77;15.30;;;;;;;12.33;90.68;98034.84;10286729;28;19914;-51
2023/05/20 01:10:14;;;;;;;;;;;;;;;12.18;91.18;98023.59;10286305;28;20065;-51
2023/05/20 01:15:14;;;;;;;23.50;16.48;;;;;;;12.11;91.37;98029.69;10285631;28;19914;-51
2023/05/20 01:20:14;;;;;;;21.58;16.13;;;;;;;11.94;91.79;98006.28;10285952;28;20080;-51
2023/05/20 01:25:13;;;;;;;23.63;16.52;;;;;;;11.95;91.89;98022.78;10285250;28;20060;-51
2023/05/20 01:30:13;;;;;;;23.83;16.33;;;;;;;11.89;91.83;98024.50;10285559;28;20068;-51
2023/05/20 01:35:14;;;;;;;25.90;16.40;;;;;;;11.80;92.23;98024.50;10285070;28;20468;-51
2023/05/20 01:40:15;;;;;;;25.75;17.40;;;;;;;11.72;92.81;98026.28;10283776;28;20121;-51
2023/05/20 01:45:14;;;;;;;28.02;18.52;;;;;;;11.50;93.39;98004.63;10284793;28;20076;-51
2023/05/20 01:50:13;;;;;;;26.88;18.02;;;;;;;11.32;94.96;98004.66;10283714;28;20034;-51
2023/05/20 01:55:12;;;;;;;33.45;19.90;;;;;;;11.38;95.18;98018.47;10284498;28;20041;-51
2023/05/20 02:00:11;;;;;;;30.52;20.83;;;;;;;11.31;95.64;98023.69;10283582;28;20534;-51
2023/05/20 02:05:10;;;;;;;35.20;23.02;;;;;;;11.17;97.18;98011.53;10283635;28;20213;-51
2023/05/20 02:10:09;;;;;;;38.80;24.90;;;;;;;11.14;97.95;98026.28;10283212;28;20014;-51
2023/05/20 02:15:09;;;;;;;38.33;25.05;;;;;;;11.19;97.29;98019.34;10284348;28;20460;-52
2023/05/20 02:20:09;;;;;;;37.63;23.30;;;;;;;11.09;97.19;98002.91;10283815;28;20160;-51
2023/05/20 02:25:08;;;;;;;30.67;18.33;;;;;;;11.19;96.35;98020.22;10283847;28;20489;-51
2023/05/20 02:30:07;;;;;;;31.45;17.88;;;;;;;11.17;95.80;98015.88;10282546;28;20124;-51
2023/05/20 02:35:07;;;;;;;31.75;19.60;;;;;;;11.11;95.23;98014.16;10283434;28;20061;-51
2023/05/20 02:40:08;;;;;;;;;;;;;;;11.03;95.25;98013.25;10282540;28;20116;-51
2023/05/20 02:45:07;;;;;;;33.35;19.80;;;;;;;10.98;95.12;98018.44;10282429;28;20016;-51
2023/05/20 02:50:06;;;;;;;32.53;20.08;;;;;;;10.92;95.00;98012.41;10281272;28;20096;-51
2023/05/20 02:55:06;;;;;;;38.70;21.05;;;;;;;10.90;95.49;98017.59;10281757;28;20120;-51
2023/05/20 03:00:12;;;;;;;34.22;20.95;;;;;;;10.74;95.51;98016.66;10281978;28;20244;-51
2023/05/20 03:05:11;;;;;;;29.45;19.20;;;;;;;10.57;96.63;98024.41;10282306;28;20117;-51
2023/05/20 03:10:10;;;;;;;33.15;19.08;;;;;;;10.68;96.50;98036.53;10281937;28;20042;-51
2023/05/20 03:15:09;;;;;;;34.42;20.00;;;;;;;10.74;96.21;98037.41;10281686;28;20125;-51
2023/05/20 03:20:11;;;;;;;31.65;19.17;;;;;;;10.74;95.85;98039.16;10280806;28;20133;-51
2023/05/20 03:25:10;;;;;;;30.88;19.33;;;;;;;10.76;96.32;98040.03;10280660;28;20112;-51
2023/05/20 03:30:09;;;;;;;50.25;31.67;;;;;;;10.73;96.53;98029.59;10281220;28;20124;-51
2023/05/20 03:35:08;;;;;;;42.28;27.02;;;;;;;10.83;96.35;98044.38;10280820;28;20574;-52
2023/05/20 03:40:11;;;;;;;46.28;30.92;;;;;;;10.62;95.54;98011.44;10280106;28;20492;-52
2023/05/20 03:45:10;;;;;;;33.67;22.48;;;;;;;10.93;96.39;98063.47;10279541;28;20073;-52
2023/05/20 03:50:09;;;;;;;34.65;21.27;;;;;;;10.99;96.07;98061.75;10280458;28;20034;-50
2023/05/20 03:55:09;;;;;;;;;;;;;;;11.07;95.75;98060.91;10280353;28;20100;-51
2023/05/20 04:00:13;;;;;;;31.50;19.73;;;;;;;10.83;96.12;98010.63;10278917;28;20016;-50
2023/05/20 04:05:12;;;;;;;32.28;19.08;;;;;;;11.33;94.63;98069.59;10279637;28;20496;-51
2023/05/20 04:10:11;;;;;;;26.08;18.65;;;;;;;10.95;95.38;98021.06;10279162;28;20121;-51
2023/05/20 04:15:11;;;;;;;;;;;;;;;11.28;95.40;98071.31;10280063;28;20032;-51
2023/05/20 04:20:10;;;;;;;25.63;16.92;;;;;;;11.30;95.55;98072.19;10279449;28;20406;-51
2023/05/20 04:25:11;;;;;;;21.75;16.50;;;;;;;11.46;94.55;98078.28;10279912;28;20064;-51
2023/05/20 04:30:10;;;;;;;23.60;14.88;;;;;;;11.54;93.70;98079.13;10278533;28;20108;-51
2023/05/20 04:35:12;;;;;;;16.88;13.27;;;;;;;11.61;93.21;98074.81;10278962;28;20143;-51
2023/05/20 04:40:12;;;;;;;18.77;13.40;;;;;;;11.61;93.37;98054.00;10278606;28;20137;-55
2023/05/20 04:45:12;;;;;;;18.13;11.10;;;;;;;11.74;93.19;98071.34;10277865;28;20113;-52
2023/05/20 04:50:12;;;;;;;18.38;11.60;;;;;;;11.93;93.51;98071.31;10278513;28;20576;-51
2023/05/20 04:55:12;;;;;;;19.83;12.90;;;;;;;12.21;93.06;98075.59;10278425;28;20120;-51
2023/05/20 05:00:12;;;;;;;22.40;11.50;;;;;;;12.53;92.35;98072.03;10276880;28;20125;-51
2023/05/20 05:05:10;;;;;;;16.73;11.52;;;;;;;12.82;92.07;98069.34;10278671;28;20468;-50
2023/05/20 05:10:10;;;;;;;;;;;;;;;13.04;91.03;98062.25;10278178;28;20411;-52
2023/05/20 05:15:09;;;;;;;16.90;10.77;;;;;;;13.24;88.47;98053.47;10283416;28;19965;-52
2023/05/20 05:20:09;;;;;;;15.48;11.80;;;;;;;13.30;87.42;98056.00;10285513;28;20148;-51
2023/05/20 05:25:09;;;;;;;22.50;10.85;;;;;;;13.42;87.92;98050.72;10285113;28;20073;-52
2023/05/20 05:30:08;;;;;;;15.43;10.55;;;;;;;13.62;86.78;98039.31;10284931;28;20531;-51
2023/05/20 05:35:07;;;;;;;17.25;11.35;;;;;;;13.81;86.78;98034.78;10285688;28;20417;-51
2023/05/20 05:40:07;;;;;;;14.88;10.27;;;;;;;13.89;85.42;98028.63;10284446;28;20152;-52
2023/05/20 05:45:07;;;;;;;16.05;10.65;;;;;;;13.81;86.39;98019.13;10284845;28;20105;-51
2023/05/20 05:50:06;;;;;;;17.83;10.15;;;;;;;14.14;84.53;98036.19;10284261;28;20085;-52
2023/05/20 05:55:06;;;;;;;15.27;10.05;;;;;;;14.32;83.87;98022.91;10284659;28;20492;-52
2023/05/20 06:00:08;;;;;;;13.27;10.75;;;;;;;14.60;83.81;98017.38;10283128;28;20121;-52
2023/05/20 06:05:07;;;;;;;12.00;8.70;;;;;;;14.60;81.25;98006.91;10284524;28;20061;-52
2023/05/20 06:10:07;;;;;;;13.88;10.57;;;;;;;14.83;81.31;98019.72;10282606;28;20053;-52
2023/05/20 06:15:07;;;;;;;14.82;11.80;;;;;;;14.96;83.01;98033.44;10280683;28;20152;-52
2023/05/20 06:20:06;;;;;;;14.77;11.48;;;;;;;15.19;82.30;98039.22;10283392;28;20570;-52
2023/05/20 06:25:06;;;;;;;15.85;10.15;;;;;;;15.35;80.43;98044.22;10282754;28;20137;-52
2023/05/20 06:30:05;;;;;;;16.00;10.27;;;;;;;15.59;79.31;98048.19;10282539;28;20145;-52
2023/05/20 06:35:05;;;;;;;16.65;9.68;;;;;;;15.74;78.16;98027.00;10282154;28;20455;-52
2023/05/20 06:40:04;;;;;;;13.52;8.77;;;;;;;14.71;74.13;97832.66;10282691;28;20121;-52
2023/05/20 06:45:04;;;;;;;11.88;8.27;;;;;;;16.11;70.69;98028.97;10282299;28;20651;-52
2023/05/20 06:50:03;;;;;;;14.95;9.07;;;;;;;16.30;70.95;98012.03;10281714;28;20145;-52
2023/05/20 06:55:03;;;;;;;13.10;9.73;;;;;;;16.72;72.39;98005.91;10282084;28;20603;-52
2023/05/20 07:00:04;;;;;;;15.48;9.48;;;;;;;17.02;69.86;98007.03;10281912;28;20074;-52
2023/05/20 07:05:03;;;;;;;14.57;9.27;;;;;;;17.21;68.30;97991.72;10276883;28;20121;-51
2023/05/20 07:10:04;;;;;;;12.32;9.15;;;;;;;17.41;66.75;98000.88;10278888;28;20061;-52
2023/05/20 07:15:03;;;;;;;10.48;8.05;;;;;;;17.53;65.20;97997.94;10281735;28;20076;-53
2023/05/20 07:20:03;;;;;;;12.35;7.95;;;;;;;17.65;66.40;97979.25;10283575;28;20764;-53
2023/05/20 07:25:02;;;;;;;9.10;7.60;;;;;;;17.93;65.20;97994.31;10281805;28;20124;-53
2023/05/20 07:30:01;;;;;;;10.68;8.27;;;;;;;18.17;65.29;97995.41;10283632;28;20137;-52
2023/05/20 07:53:05;;;;;;;11.77;7.80;;;;;;;18.86;64.82;97977.69;10493484;27;20444;-52
2023/05/20 07:58:04;;;;;;;13.40;7.75;;;;;;;18.74;62.83;97967.53;10493756;28;20102;-53
2023/05/20 08:03:03;;;;;;;11.75;7.75;;;;;;;18.91;61.56;97959.97;10492135;28;20056;-52
2023/05/20 08:08:02;;;;;;;12.75;8.05;;;;;;;19.04;62.37;97973.59;10491086;28;20012;-52
2023/05/20 08:13:01;;;;;;;10.73;7.47;;;;;;;19.22;60.94;97962.47;10491864;28;20059;-53
2023/05/20 08:18:00;;;;;;;10.90;7.63;;;;;;;19.76;60.75;97952.81;10492188;28;20051;-53
2023/05/20 08:22:59;;;;;;;11.55;7.75;;;;;;;20.03;57.56;97950.13;10492421;28;20032;-52
2023/05/20 08:28:02;;;;;;;16.83;8.57;;;;;;;19.85;55.78;97952.50;10492497;28;20498;-52
2023/05/20 08:33:01;;;;;;;14.30;8.77;;;;;;;20.35;56.98;97924.34;10492289;28;20059;-52
2023/05/20 08:38:00;;;;;;;14.25;9.07;;;;;;;20.73;53.97;97945.78;10491707;28;20035;-51
2023/05/20 08:43:00;;;;;;;10.25;8.18;;;;;;;21.01;52.14;97935.00;10490183;28;20060;-53
2023/05/20 08:48:00;;;;;;;13.32;8.50;;;;;;;20.70;50.82;97909.84;10491030;28;20062;-54
2023/05/20 08:52:59;;;;;;;8.98;6.88;;;;;;;20.84;50.91;97927.75;10458014;28;20071;-53
2023/05/20 08:57:58;;;;;;;11.07;7.88;;;;;;;21.18;50.03;97926.41;10459349;28;20036;-54
2023/05/20 09:02:59;;;;;;;10.38;8.43;;;;;;;21.18;49.75;97919.34;10458840;28;20048;-50
2023/05/20 09:08:10;;;;;;;9.90;7.28;;;;;;;21.30;48.84;97926.78;10457783;28;20068;-52
2023/05/20 09:13:10;;;;;;;11.60;7.22;;;;;;;21.16;47.97;97921.19;10446652;28;20462;-52
2023/05/20 09:18:10;;;;;;;10.10;7.63;;;;;;;21.40;48.46;97926.41;10459912;28;20090;-53
2023/05/20 09:23:10;;;;;;;15.18;7.85;;;;;;;21.71;47.16;97891.59;10458724;28;20087;-52
2023/05/20 09:28:08;;;;;;;11.10;7.32;;;;;;;21.57;47.41;97886.06;10430943;28;20070;-53
2023/05/20 09:33:10;;;;;;;10.18;7.68;;;;;;;21.55;48.15;97894.94;10459979;28;20093;-52
2023/05/20 09:38:11;;;;;;;9.77;7.57;;;;;;;21.74;47.58;97878.28;10459329;28;20474;-52
2023/05/20 09:43:11;;;;;;;12.80;8.50;;;;;;;22.25;46.85;97895.41;10459264;28;20079;-53
2023/05/20 09:48:11;;;;;;;8.65;6.95;;;;;;;22.51;45.35;97867.72;10459013;28;20063;-52
2023/05/20 09:53:11;;;;;;;11.30;7.43;;;;;;;22.50;44.85;97878.38;10454195;28;20063;-53
2023/05/20 09:58:12;;;;;;;11.75;7.32;;;;;;;22.39;45.06;97849.81;10453529;28;20553;-53
2023/05/20 10:03:12;;;;;;;10.25;7.15;;;;;;;22.52;44.66;97879.16;10452219;28;20698;-52
2023/05/20 10:08:20;;;;;;;10.25;6.68;;;;;;;22.48;46.12;97873.16;10454280;28;20051;-53
2023/05/20 10:13:53;;;;;;;13.87;7.43;;;;;;;22.10;45.83;97873.16;10456939;28;20059;-53
2023/05/20 10:19:06;;;;;;;11.27;8.10;;;;;;;22.32;48.14;97864.22;10455779;28;20063;-52
2023/05/20 10:24:09;;;;;;;9.20;6.97;;;;;;;22.21;46.00;97862.09;10457184;28;20560;-52
2023/05/20 10:29:18;;;;;;;10.00;6.35;;;;;;;21.77;44.55;97799.75;10452694;28;20052;-52
2023/05/20 10:34:19;;;;;;;9.32;6.43;;;;;;;22.35;44.22;97843.78;10449955;28;20067;-50
2023/05/20 10:39:26;;;;;;;9.07;7.20;;;;;;;22.07;43.63;97853.94;10456427;28;20509;-55
2023/05/20 10:44:25;;;;;;;10.85;7.13;;;;;;;21.84;44.37;97842.59;10456390;28;20070;-53
2023/05/20 10:49:24;;;;;;;11.15;7.10;;;;;;;21.81;43.68;97837.47;10444015;28;20047;-52
2023/05/20 10:54:23;;;;;;;8.27;6.45;;;;;;;21.90;43.65;97842.34;10445758;28;20490;-52
2023/05/20 10:59:22;;;;;;;8.45;6.40;;;;;;;22.00;42.72;97834.03;10444759;28;20468;-52
2023/05/20 11:04:21;;;;;;;10.40;6.95;;;;;;;22.03;45.12;97836.50;10444242;28;20162;-53
2023/05/20 11:09:23;;;;;;;9.93;6.88;;;;;;;22.18;44.52;97844.59;10449072;28;20067;-52
2023/05/20 11:14:24;;;;;;;10.07;7.32;;;;;;;22.09;44.63;97845.03;10448823;28;20055;-56
2023/05/20 11:19:23;;;;;;;11.50;7.63;;;;;;;22.27;45.83;97845.97;10443008;28;20794;-54
2023/05/20 11:24:28;;;;;;;10.20;7.30;;;;;;;22.92;44.97;97832.28;10448281;28;20079;-52
2023/05/20 11:29:31;;;;;;;10.63;8.13;;;;;;;22.80;45.84;97841.69;10447774;28;20111;-53
2023/05/20 11:34:35;;;;;;;11.82;8.00;;;;;;;22.71;46.63;97827.06;10446588;28;20502;-52
2023/05/20 11:39:34;;;;;;;13.02;7.88;;;;;;;22.33;45.12;97872.09;10449356;28;20067;-54
2023/05/20 11:44:33;;;;;;;15.07;6.95;;;;;;;22.06;48.94;97865.44;10446741;28;20051;-53
2023/05/20 11:49:38;;;;;;;11.55;7.93;;;;;;;21.11;56.95;97894.13;10445030;28;20068;-52
2023/05/20 11:54:37;;;;;;;11.30;7.47;;;;;;;20.74;60.52;97886.88;10448301;28;20757;-53
2023/05/20 11:59:38;;;;;;;9.40;7.07;;;;;;;20.69;61.82;97850.97;10439630;28;21528;-53
2023/05/20 12:04:37;;;;;;;9.93;8.10;;;;;;;21.14;63.49;97863.19;10442901;28;20123;-53
2023/05/20 12:09:36;;;;;;;11.23;7.30;;;;;;;21.93;63.72;97852.75;10446549;28;20024;-53
2023/05/20 12:14:35;;;;;;;9.52;7.22;;;;;;;22.79;60.66;97846.13;10448012;28;20480;-53
2023/05/20 12:19:34;;;;;;;11.93;7.32;;;;;;;23.42;55.40;97836.81;10446702;28;20111;-54
2023/05/20 12:24:32;;;;;;;9.18;7.45;;;;;;;23.63;54.79;97838.38;10447333;28;20063;-54
2023/05/20 12:29:32;;;;;;;9.73;7.47;;;;;;;23.83;52.83;97825.84;10451877;28;20173;-53
2023/05/20 12:34:31;;;;;;;11.70;8.90;;;;;;;23.99;52.02;97816.13;10453795;28;20541;-55
2023/05/20 12:39:30;;;;;;;10.32;7.85;;;;;;;24.13;52.96;97802.13;10453990;28;20063;-53
2023/05/20 12:44:29;;;;;;;9.93;7.25;;;;;;;24.18;50.79;97796.59;10453326;28;20036;-54
2023/05/20 12:49:30;;;;;;;9.18;6.43;;;;;;;23.89;48.98;97790.19;10452625;28;20127;-56
2023/05/20 12:54:29;;;;;;;11.77;7.00;;;;;;;23.56;46.26;97777.81;10449709;28;20114;-54
2023/05/20 12:59:28;;;;;;;9.20;7.03;;;;;;;23.16;45.79;97767.53;10451621;28;20123;-53
2023/05/20 13:04:27;;;;;;;9.10;7.50;;;;;;;23.34;49.71;97756.91;10451606;28;20119;-53
2023/05/20 13:09:26;;;;;;;9.77;7.45;;;;;;;23.36;47.33;97745.28;10449771;28;20107;-53
2023/05/20 13:14:25;;;;;;;9.05;7.38;;;;;;;23.63;46.20;97740.34;10452283;28;20020;-54
2023/05/20 13:19:24;;;;;;;9.02;6.47;;;;;;;23.49;48.98;97647.53;10453558;28;20044;-55
2023/05/20 13:24:23;;;;;;;9.05;6.47;;;;;;;24.30;43.43;97729.59;10451999;28;20071;-53
2023/05/20 13:29:22;;;;;;;10.13;6.30;;;;;;;23.95;43.29;97713.84;10447347;28;20115;-53
2023/05/20 13:34:21;;;;;;;9.18;6.93;;;;;;;24.08;47.03;97697.28;10449115;28;20322;-57
2023/05/20 13:39:20;;;;;;;8.40;6.85;;;;;;;24.35;46.42;97685.09;10451257;28;20056;-55
2023/05/20 13:44:19;;;;;;;10.05;6.68;;;;;;;24.16;43.32;97676.47;10452838;28;20040;-56
2023/05/20 13:49:19;;;;;;;9.55;6.65;;;;;;;24.27;43.64;97676.75;10451417;28;20467;-53
2023/05/20 13:54:20;;;;;;;7.82;5.90;;;;;;;24.09;43.87;97668.03;10453138;28;20071;-54
2023/05/20 13:59:19;;;;;;;10.55;7.00;;;;;;;24.15;43.68;97672.13;10452748;28;20044;-53
2023/05/20 14:04:18;;;;;;;9.02;6.93;;;;;;;23.98;42.95;97673.94;10451820;28;20462;-53
2023/05/20 14:09:17;;;;;;;8.70;6.22;;;;;;;24.32;41.97;97673.84;10451615;28;20444;-53
2023/05/20 14:14:16;;;;;;;9.15;6.57;;;;;;;24.64;43.83;97650.72;10452282;28;20028;-55
2023/05/20 14:19:15;;;;;;;9.23;6.75;;;;;;;24.72;42.87;97661.72;10451623;28;20486;-53
2023/05/20 14:24:14;;;;;;;11.27;6.60;;;;;;;24.12;44.34;97633.38;10451652;28;20414;-53
2023/05/20 14:29:14;;;;;;;9.43;6.65;;;;;;;24.11;45.45;97655.53;10449192;28;20127;-54
2023/05/20 14:34:13;;;;;;;10.80;7.25;;;;;;;23.76;48.46;97634.53;10448688;28;20558;-54
2023/05/20 14:39:12;;;;;;;10.43;6.85;;;;;;;23.58;47.93;97631.16;10447876;28;20490;-54
2023/05/20 14:44:11;;;;;;;13.18;7.05;;;;;;;23.98;46.69;97633.31;10448268;28;20039;-54
2023/05/20 14:49:09;;;;;;;10.00;6.63;;;;;;;24.77;47.62;97645.53;10448407;28;20418;-53
2023/05/20 14:54:09;;;;;;;9.07;6.45;;;;;;;24.87;44.08;97621.03;10450340;28;20047;-53
2023/05/20 14:59:08;;;;;;;10.63;6.47;;;;;;;24.27;42.67;97651.09;10449530;28;20059;-53
2023/05/20 15:04:07;;;;;;;10.45;6.10;;;;;;;24.11;37.08;97631.66;10450247;28;20130;-53
2023/05/20 15:09:06;;;;;;;9.68;5.60;;;;;;;23.88;34.43;97621.53;10449730;28;20150;-54
2023/05/20 15:14:05;;;;;;;11.35;6.30;;;;;;;23.43;35.63;97624.84;10450058;28;20109;-55
2023/05/20 15:19:04;;;;;;;9.82;6.30;;;;;;;23.08;36.56;97624.13;10449468;28;20036;-54
2023/05/20 15:24:03;;;;;;;9.85;5.55;;;;;;;22.76;37.59;97620.53;10450226;28;20066;-53
2023/05/20 15:29:02;;;;;;;9.32;5.43;;;;;;;22.61;37.86;97616.88;10449291;28;20340;-56
2023/05/20 15:34:01;;;;;;;20.17;6.60;;;;;;;22.56;38.99;97632.13;10449425;28;20482;-55
2023/05/20 15:39:00;;;;;;;9.32;6.75;;;;;;;22.57;38.23;97631.19;10449325;28;20379;-55
2023/05/20 15:43:59;;;;;;;12.05;5.82;;;;;;;22.66;38.99;97628.06;10447105;28;20040;-53
2023/05/20 15:48:58;;;;;;;11.90;6.32;;;;;;;22.25;39.02;97590.53;10448975;28;20131;-55
2023/05/20 15:53:57;;;;;;;12.82;6.35;;;;;;;22.23;39.35;97624.97;10447967;28;20067;-54
2023/05/20 15:58:56;;;;;;;13.32;7.55;;;;;;;22.30;39.46;97634.31;10448185;28;20032;-51
2023/05/20 16:03:55;;;;;;;18.85;10.57;;;;;;;22.54;39.73;97628.72;10457003;28;20503;-54
2023/05/20 16:08:54;;;;;;;13.32;7.80;;;;;;;22.83;38.96;97635.16;10455980;28;20028;-54
2023/05/20 16:13:53;;;;;;;11.27;6.78;;;;;;;22.78;38.81;97630.09;10456251;28;20027;-55
2023/05/20 16:18:52;;;;;;;11.73;6.20;;;;;;;22.25;39.15;97606.38;10456428;28;20788;-52
2023/05/20 16:23:53;;;;;;;12.40;7.22;;;;;;;22.46;40.60;97642.34;10456000;28;20481;-53
2023/05/20 16:28:52;;;;;;;34.33;17.67;;;;;;;22.48;40.94;97621.94;10455081;28;20168;-55
2023/05/20 16:33:51;;;;;;;20.23;11.40;;;;;;;22.58;41.09;97628.47;10456238;28;20115;-52
2023/05/20 16:38:50;;;;;;;9.65;6.45;;;;;;;22.26;39.62;97645.97;10455459;28;20031;-53
2023/05/20 16:43:49;;;;;;;20.50;12.27;;;;;;;21.80;40.60;97623.56;10449611;28;20088;-53
2023/05/20 16:48:48;;;;;;;14.00;8.52;;;;;;;21.76;40.86;97636.91;10454221;28;20115;-53
2023/05/20 16:53:47;;;;;;;10.13;6.53;;;;;;;21.47;40.78;97614.53;10452379;28;20039;-52
2023/05/20 16:58:46;;;;;;;9.00;6.75;;;;;;;21.33;40.90;97632.81;10447207;28;20056;-53
2023/05/20 17:03:45;;;;;;;10.38;5.88;;;;;;;20.89;41.96;97639.16;10454565;28;20107;-52
2023/05/20 17:08:44;;;;;;;11.68;6.28;;;;;;;20.82;42.65;97639.47;10453973;28;20120;-52
2023/05/20 17:13:43;;;;;;;13.52;8.93;;;;;;;20.77;43.13;97652.00;10453030;28;20188;-53
2023/05/20 17:18:42;;;;;;;15.68;9.32;;;;;;;20.68;45.24;97650.63;10454143;28;20115;-52
2023/05/20 17:23:41;;;;;;;14.70;7.75;;;;;;;20.64;47.46;97662.25;10454728;28;20051;-52
2023/05/20 17:28:41;;;;;;;14.93;8.77;;;;;;;20.28;50.02;97640.00;10451703;28;20059;-52
2023/05/20 17:33:40;;;;;;;14.38;9.68;;;;;;;20.27;50.73;97675.16;10454361;28;20435;-53
2023/05/20 17:38:39;;;;;;;11.57;8.00;;;;;;;19.58;52.34;97696.34;10452931;28;20450;-53
2023/05/20 17:43:38;;;;;;;10.32;6.55;;;;;;;18.76;58.87;97745.75;10451384;28;20028;-54
2023/05/20 17:48:37;;;;;;;15.02;7.30;;;;;;;17.77;67.04;97763.72;10452803;28;20408;-54
2023/05/20 17:53:36;;;;;;;13.10;7.75;;;;;;;17.14;75.17;97764.63;10450861;28;20120;-54
2023/05/20 17:58:35;;;;;;;9.48;6.57;;;;;;;16.72;78.71;97756.97;10387418;28;20119;-52
2023/05/20 18:03:34;;;;;;;10.80;7.50;;;;;;;16.34;82.16;97766.66;10369600;28;20024;-52
2023/05/20 18:08:33;;;;;;;11.18;7.15;;;;;;;16.18;82.44;97763.53;10369488;28;20116;-53
2023/05/20 18:13:32;;;;;;;13.43;8.80;;;;;;;16.25;82.25;97761.63;10368134;28;20021;-53
2023/05/20 18:18:31;;;;;;;13.32;8.90;;;;;;;16.36;82.58;97758.75;10368806;28;20051;-53
2023/05/20 18:23:29;;;;;;;10.95;6.97;;;;;;;16.34;83.15;97756.16;10368463;28;20116;-53
2023/05/20 18:28:28;;;;;;;10.38;7.47;;;;;;;16.23;84.63;97773.88;10367927;28;20033;-52
2023/05/20 18:33:28;;;;;;;17.77;10.82;;;;;;;15.79;88.51;97775.78;10367963;28;20033;-53
2023/05/20 18:38:27;;;;;;;16.38;12.43;;;;;;;15.74;90.70;97761.88;10368315;28;20571;-52
2023/05/20 18:43:26;;;;;;;14.65;12.15;;;;;;;15.74;93.06;97773.22;10367299;28;20460;-52
2023/05/20 18:48:25;;;;;;;14.35;10.77;;;;;;;15.54;92.81;97772.78;10367135;28;20500;-52
2023/05/20 18:53:24;;;;;;;28.83;16.80;;;;;;;15.08;96.13;97791.97;10370534;28;20071;-52
2023/05/20 18:58:23;;;;;;;18.27;12.35;;;;;;;14.73;96.48;97765.59;10364235;28;20091;-52
2023/05/20 19:03:24;;;;;;;;;;;;;;;14.67;97.25;97783.94;10362364;28;20024;-51
2023/05/20 19:08:23;;;;;;;13.82;8.77;;;;;;;14.61;98.17;97781.41;10367197;28;20003;-50
2023/05/20 19:13:22;;;;;;;10.13;8.05;;;;;;;14.28;99.54;97790.66;10365813;28;20112;-54
2023/05/20 19:18:20;;;;;;;;;;;;;;;14.32;99.40;97784.50;10366660;28;20028;-51
2023/05/20 19:23:19;;;;;;;12.07;8.63;;;;;;;14.22;98.84;97744.66;10366890;28;20378;-52
2023/05/20 19:28:18;;;;;;;14.30;9.77;;;;;;;14.68;97.44;97780.44;10366039;28;20131;-52
2023/05/20 19:33:17;;;;;;;;;;;;;;;14.86;96.79;97778.44;10365736;28;20501;-51
2023/05/20 19:38:16;;;;;;;14.30;11.05;;;;;;;14.98;96.33;97772.97;10365849;28;19921;-49
2023/05/20 19:43:15;;;;;;;;;;;;;;;15.09;96.14;97778.03;10365504;28;20025;-52
2023/05/20 19:48:14;;;;;;;19.77;12.50;;;;;;;15.14;96.09;97778.78;10364470;28;19920;-52
2023/05/20 19:53:13;;;;;;;;;;;;;;;15.17;96.66;97776.97;10365224;28;20378;-51
2023/05/20 19:58:12;;;;;;;16.05;11.90;;;;;;;15.08;97.08;97784.13;10365733;28;19999;-52
2023/05/20 20:03:12;;;;;;;17.88;12.52;;;;;;;15.17;96.58;97774.34;10366581;28;20563;-52
2023/05/20 20:08:11;;;;;;;16.25;12.48;;;;;;;15.18;96.08;97770.88;10365455;28;20465;-51
2023/05/20 20:13:10;;;;;;;;;;;;;;;15.19;96.65;97763.88;10364171;28;20662;-49
2023/05/20 20:18:09;;;;;;;19.73;14.27;;;;;;;15.24;96.50;97759.41;10365597;28;20502;-50
2023/05/20 20:23:08;;;;;;;16.98;14.10;;;;;;;15.04;96.16;97731.06;10365677;28;20116;-51
2023/05/20 20:28:09;;;;;;;17.52;12.15;;;;;;;15.26;95.64;97773.31;10365535;28;20385;-54
2023/05/20 20:33:08;;;;;;;17.02;11.45;;;;;;;14.92;95.70;97726.03;10364027;28;20163;-51
2023/05/20 20:38:08;;;;;;;17.00;10.52;;;;;;;15.16;95.48;97762.19;10365191;28;20112;-52
2023/05/20 20:43:09;;;;;;;15.60;11.57;;;;;;;15.13;95.71;97761.38;10364413;28;20056;-52
2023/05/20 20:48:08;;;;;;;15.57;11.95;;;;;;;15.08;95.79;97763.22;10368505;28;20724;-52
2023/05/20 20:53:07;;;;;;;;;;;;;;;15.05;95.64;97758.91;10373177;28;20534;-49
2023/05/20 20:58:06;;;;;;;15.63;11.70;;;;;;;15.10;96.10;97754.44;10372365;28;19967;-51
2023/05/20 21:03:06;;;;;;;13.50;10.45;;;;;;;15.08;95.59;97761.44;10371835;28;20116;-52
2023/05/20 21:08:07;;;;;;;14.80;11.10;;;;;;;15.01;95.67;97757.22;10372387;28;20515;-50
2023/05/20 21:13:05;;;;;;;15.88;10.80;;;;;;;15.00;95.67;97768.59;10371912;28;20044;-54
2023/05/20 21:18:04;;;;;;;16.27;11.43;;;;;;;14.95;95.51;97759.97;10371864;28;20407;-52
2023/05/20 21:23:03;;;;;;;;;;;;;;;14.82;95.53;97752.34;10372342;28;20055;-52
2023/05/20 21:28:02;;;;;;;15.73;10.88;;;;;;;14.73;95.62;97747.31;10370821;28;20041;-50
2023/05/20 21:33:01;;;;;;;;;;;;;;;14.46;96.36;97743.38;10371287;28;20064;-51
2023/05/20 21:38:00;;;;;;;12.13;9.33;;;;;;;14.16;97.25;97726.47;10371372;28;20321;-49
2023/05/20 21:42:59;;;;;;;;;;;;;;;14.13;97.55;97750.00;10371007;28;20071;-51
2023/05/20 21:47:58;;;;;;;14.15;10.95;;;;;;;14.07;97.50;97744.88;10369414;28;19927;-49
2023/05/20 21:52:56;;;;;;;;;;;;;;;14.06;96.71;97737.94;10370859;28;20474;-49
2023/05/20 21:57:55;;;;;;;16.88;11.48;;;;;;;13.98;96.37;97736.31;10370102;28;19964;-52
2023/05/20 22:02:54;;;;;;;;;;;;;;;13.94;96.38;97739.84;10369942;28;20043;-49
2023/05/20 22:07:53;;;;;;;17.48;12.07;;;;;;;13.87;96.09;97727.78;10368846;28;19913;-52
2023/05/20 22:12:54;;;;;;;;;;;;;;;13.80;96.05;97726.16;10369146;28;20079;-51
2023/05/20 22:17:53;;;;;;;19.00;11.77;;;;;;;13.72;96.31;97727.97;10366809;28;19956;-50
2023/05/20 22:22:52;;;;;;;19.00;12.57;;;;;;;13.61;96.23;97720.31;10363838;28;20103;-50
2023/05/20 22:27:51;;;;;;;;;;;;;;;13.53;96.25;97712.56;10363043;28;20033;-52
2023/05/20 22:32:50;;;;;;;19.08;13.02;;;;;;;13.46;96.43;97707.44;10363848;28;20058;-49
2023/05/20 22:37:49;;;;;;;30.33;13.93;;;;;;;13.30;96.68;97693.75;10367280;28;20132;-51
2023/05/20 22:42:48;;;;;;;23.48;13.40;;;;;;;13.34;96.60;97705.88;10368367;28;20108;-49
2023/05/20 22:47:47;;;;;;;;;;;;;;;13.34;96.86;97701.50;10368452;28;20037;-52
2023/05/20 22:52:46;;;;;;;16.75;12.32;;;;;;;13.36;96.45;97696.28;10367260;28;20382;-53
2023/05/20 22:57:45;;;;;;;17.95;12.18;;;;;;;13.32;96.30;97699.81;10365954;28;20077;-53
2023/05/20 23:02:48;;;;;;;15.68;10.90;;;;;;;13.24;96.03;97686.03;10367095;28;20039;-51
2023/05/20 23:07:47;;;;;;;18.30;12.85;;;;;;;13.24;96.13;97691.25;10366578;28;20143;-53
2023/05/20 23:12:46;;;;;;;;;;;;;;;13.17;95.70;97693.06;10367370;28;20041;-53
2023/05/20 23:17:45;;;;;;;15.38;11.18;;;;;;;13.11;95.62;97688.75;10366138;28;20004;-53
2023/05/20 23:22:46;;;;;;;18.38;12.02;;;;;;;12.94;95.53;97659.47;10364573;28;20522;-50